createdAt,value
2018-08-22T00:00:59.920Z,99.99
2018-08-22T00:01:59.913Z,99.99
2018-08-22T00:02:59.923Z,99.99
2018-08-22T00:04:00.127Z,99.99
2018-08-22T00:04:59.925Z,99.99
2018-08-22T00:05:59.935Z,99.99
2018-08-22T00:06:59.931Z,99.99
2018-08-22T00:07:59.938Z,99.99
2018-08-22T00:08:59.983Z,99.99
2018-08-22T00:10:00.149Z,99.99
2018-08-22T00:10:59.945Z,99.99
2018-08-22T00:11:59.943Z,99.99
2018-08-22T00:13:00.162Z,99.99
2018-08-22T00:13:59.950Z,99.99
2018-08-22T00:15:00.217Z,99.99
2018-08-22T00:15:59.956Z,99.99
2018-08-22T00:16:59.974Z,99.99
2018-08-22T00:17:59.965Z,99.99
2018-08-22T00:19:00.198Z,99.99
2018-08-22T00:19:59.971Z,99.99
2018-08-22T00:21:00.188Z,99.99
2018-08-22T00:21:59.979Z,99.99
2018-08-22T00:22:59.997Z,99.99
2018-08-22T00:23:59.990Z,99.99
2018-08-22T00:25:00.207Z,99.99
2018-08-22T00:26:00.225Z,99.99
2018-08-22T00:27:00.014Z,99.99
2018-08-22T00:28:00.018Z,99.99
2018-08-22T00:29:00.020Z,99.99
2018-08-22T00:30:00.007Z,99.99
2018-08-22T00:31:00.013Z,99.99
2018-08-22T00:32:00.231Z,99.99
2018-08-22T00:33:00.021Z,99.99
2018-08-22T00:34:00.242Z,99.99
2018-08-22T00:35:00.029Z,99.99
2018-08-22T00:36:00.031Z,99.99
2018-08-22T00:37:00.046Z,99.99
2018-08-22T00:38:00.038Z,99.99
2018-08-22T00:39:00.062Z,99.99
2018-08-22T00:40:00.063Z,99.99
2018-08-22T00:41:00.049Z,99.99
2018-08-22T00:42:00.055Z,99.99
2018-08-22T00:43:00.060Z,99.99
2018-08-22T00:44:00.084Z,99.99
2018-08-22T00:45:00.078Z,99.99
2018-08-22T00:46:00.076Z,99.99
2018-08-22T00:47:00.070Z,99.99
2018-08-22T00:48:00.085Z,99.99
2018-08-22T00:49:00.075Z,99.99
2018-08-22T00:50:00.093Z,99.99
2018-08-22T00:51:00.287Z,99.99
2018-08-22T00:52:00.103Z,99.99
2018-08-22T00:53:00.092Z,99.99
2018-08-22T00:54:00.092Z,99.99
2018-08-22T00:55:00.097Z,99.99
2018-08-22T00:56:00.103Z,99.99
2018-08-22T00:57:00.107Z,99.99
2018-08-22T00:58:00.120Z,99.99
2018-08-22T00:59:00.123Z,99.99
2018-08-22T01:00:00.330Z,99.99
2018-08-22T01:01:00.118Z,99.99
2018-08-22T01:02:00.120Z,99.99
2018-08-22T01:03:00.328Z,99.99
2018-08-22T01:04:00.341Z,99.99
2018-08-22T01:05:00.334Z,99.99
2018-08-22T01:06:00.145Z,99.99
2018-08-22T01:07:00.362Z,99.99
2018-08-22T01:08:00.144Z,99.99
2018-08-22T01:09:00.144Z,99.99
2018-08-22T01:10:00.150Z,99.99
2018-08-22T01:11:00.154Z,99.99
2018-08-22T01:12:00.158Z,99.99
2018-08-22T01:13:00.158Z,99.99
2018-08-22T01:14:00.168Z,99.99
2018-08-22T01:15:00.166Z,99.99
2018-08-22T01:16:00.171Z,99.99
2018-08-22T01:17:00.372Z,99.99
2018-08-22T01:18:00.179Z,99.99
2018-08-22T01:19:00.391Z,99.99
2018-08-22T01:20:00.384Z,99.99
2018-08-22T01:21:00.386Z,99.99
2018-08-22T01:22:00.189Z,99.99
2018-08-22T01:23:00.194Z,99.99
2018-08-22T01:24:00.397Z,99.99
2018-08-22T01:25:00.214Z,99.99
2018-08-22T01:26:00.406Z,99.99
2018-08-22T01:27:00.206Z,99.99
2018-08-22T01:28:00.211Z,99.99
2018-08-22T01:29:00.225Z,99.99
2018-08-22T01:30:00.217Z,99.99
2018-08-22T01:31:00.222Z,99.99
2018-08-22T01:32:00.225Z,99.99
2018-08-22T01:33:00.228Z,99.99
2018-08-22T01:34:00.443Z,99.99
2018-08-22T01:35:00.238Z,99.99
2018-08-22T01:36:00.254Z,99.99
2018-08-22T01:37:00.442Z,99.99
2018-08-22T01:38:00.269Z,99.99
2018-08-22T01:39:00.263Z,99.99
2018-08-22T01:40:00.453Z,99.99
2018-08-22T01:41:00.455Z,99.99
2018-08-22T01:42:00.461Z,99.99
2018-08-22T01:43:00.275Z,99.99
2018-08-22T01:44:00.276Z,99.99
2018-08-22T01:45:00.470Z,99.99
2018-08-22T01:46:00.285Z,99.99
2018-08-22T01:47:00.288Z,99.99
2018-08-22T01:48:00.501Z,99.99
2018-08-22T01:49:00.283Z,99.99
2018-08-22T01:50:00.486Z,99.99
2018-08-22T01:51:00.294Z,99.99
2018-08-22T01:52:00.305Z,99.99
2018-08-22T01:53:00.324Z,99.99
2018-08-22T01:54:00.301Z,99.99
2018-08-22T01:55:00.316Z,99.99
2018-08-22T01:56:00.316Z,99.99
2018-08-22T01:57:00.310Z,99.99
2018-08-22T01:58:00.311Z,99.99
2018-08-22T01:59:00.315Z,99.99
2018-08-22T02:00:00.320Z,99.99
2018-08-22T02:01:00.324Z,99.99
2018-08-22T02:02:00.327Z,99.99
2018-08-22T02:03:00.338Z,99.99
2018-08-22T02:04:00.334Z,99.99
2018-08-22T02:05:00.535Z,99.99
2018-08-22T02:06:00.540Z,99.99
2018-08-22T02:07:00.357Z,99.99
2018-08-22T02:08:00.344Z,99.99
2018-08-22T02:09:00.348Z,99.99
2018-08-22T02:10:00.351Z,99.99
2018-08-22T02:11:00.352Z,99.99
2018-08-22T02:12:00.358Z,99.99
2018-08-22T02:13:00.372Z,99.99
2018-08-22T02:14:00.564Z,99.99
2018-08-22T02:15:00.589Z,99.99
2018-08-22T02:16:00.369Z,99.99
2018-08-22T02:17:00.372Z,99.99
2018-08-22T02:18:00.577Z,99.99
2018-08-22T02:19:00.390Z,99.99
2018-08-22T02:20:00.382Z,99.99
2018-08-22T02:21:00.394Z,99.99
2018-08-22T02:22:00.387Z,99.99
2018-08-22T02:23:00.400Z,99.99
2018-08-22T02:24:00.403Z,99.99
2018-08-22T02:25:00.418Z,99.99
2018-08-22T02:26:00.402Z,99.99
2018-08-22T02:27:00.421Z,99.99
2018-08-22T02:28:00.610Z,99.99
2018-08-22T02:29:00.409Z,99.99
2018-08-22T02:30:00.615Z,99.99
2018-08-22T02:31:00.619Z,99.99
2018-08-22T02:32:00.420Z,99.99
2018-08-22T02:33:00.623Z,99.99
2018-08-22T02:34:00.426Z,99.99
2018-08-22T02:35:00.428Z,99.99
2018-08-22T02:36:00.429Z,99.99
2018-08-22T02:37:00.435Z,99.99
2018-08-22T02:38:00.436Z,99.99
2018-08-22T02:39:00.449Z,99.99
2018-08-22T02:40:00.441Z,99.99
2018-08-22T02:41:00.444Z,99.99
2018-08-22T02:42:00.461Z,99.99
2018-08-22T02:43:00.653Z,99.99
2018-08-22T02:44:00.467Z,99.99
2018-08-22T02:45:00.457Z,99.99
2018-08-22T02:46:00.461Z,99.99
2018-08-22T02:47:00.665Z,99.99
2018-08-22T02:48:00.677Z,99.99
2018-08-22T02:49:00.467Z,99.99
2018-08-22T02:50:00.470Z,99.99
2018-08-22T02:51:00.677Z,99.99
2018-08-22T02:52:00.689Z,99.99
2018-08-22T02:53:00.478Z,99.99
2018-08-22T02:54:00.495Z,99.99
2018-08-22T02:55:00.484Z,99.99
2018-08-22T02:56:00.492Z,99.99
2018-08-22T02:57:00.512Z,99.99
2018-08-22T02:58:00.512Z,99.99
2018-08-22T02:59:00.507Z,99.99
2018-08-22T03:00:00.501Z,99.99
2018-08-22T03:01:00.516Z,99.99
2018-08-22T03:02:00.514Z,99.99
2018-08-22T03:03:00.718Z,99.99
2018-08-22T03:04:00.511Z,99.99
2018-08-22T03:05:00.538Z,99.99
2018-08-22T03:06:00.514Z,99.99
2018-08-22T03:07:00.721Z,99.99
2018-08-22T03:08:00.728Z,99.99
2018-08-22T03:09:00.533Z,99.99
2018-08-22T03:10:00.530Z,99.99
2018-08-22T03:11:00.731Z,99.99
2018-08-22T03:12:00.532Z,99.99
2018-08-22T03:13:00.738Z,99.99
2018-08-22T03:14:00.539Z,99.99
2018-08-22T03:15:00.556Z,99.99
2018-08-22T03:16:00.546Z,99.99
2018-08-22T03:17:00.556Z,99.99
2018-08-22T03:18:00.561Z,99.99
2018-08-22T03:19:00.565Z,99.99
2018-08-22T03:20:00.558Z,99.99
2018-08-22T03:21:00.579Z,99.99
2018-08-22T03:22:00.561Z,99.99
2018-08-22T03:23:00.585Z,99.99
2018-08-22T03:24:00.569Z,99.99
2018-08-22T03:25:00.782Z,99.99
2018-08-22T03:26:00.806Z,99.99
2018-08-22T03:27:00.779Z,99.99
2018-08-22T03:28:00.577Z,99.99
2018-08-22T03:29:00.594Z,99.99
2018-08-22T03:30:00.618Z,99.99
2018-08-22T03:31:00.790Z,99.99
2018-08-22T03:32:00.587Z,99.99
2018-08-22T03:33:00.794Z,99.99
2018-08-22T03:34:00.809Z,99.99
2018-08-22T03:35:00.602Z,99.99
2018-08-22T03:36:00.601Z,99.99
2018-08-22T03:37:00.613Z,99.99
2018-08-22T03:38:00.604Z,99.99
2018-08-22T03:39:00.617Z,99.99
2018-08-22T03:40:00.619Z,99.99
2018-08-22T03:41:00.612Z,99.99
2018-08-22T03:42:00.613Z,99.99
2018-08-22T03:43:00.616Z,99.99
2018-08-22T03:44:00.618Z,99.99
2018-08-22T03:45:00.825Z,99.99
2018-08-22T03:46:00.625Z,99.99
2018-08-22T03:47:00.626Z,99.99
2018-08-22T03:48:00.628Z,99.99
2018-08-22T03:49:00.630Z,99.99
2018-08-22T03:50:00.837Z,99.99
2018-08-22T03:51:00.640Z,99.99
2018-08-22T03:52:00.639Z,99.99
2018-08-22T03:53:00.858Z,99.99
2018-08-22T03:54:00.658Z,99.99
2018-08-22T03:55:00.694Z,99.99
2018-08-22T03:56:00.667Z,99.99
2018-08-22T03:57:00.664Z,99.99
2018-08-22T03:58:00.858Z,99.99
2018-08-22T03:59:00.679Z,99.99
2018-08-22T04:00:00.661Z,99.99
2018-08-22T04:01:00.665Z,99.99
2018-08-22T04:02:00.873Z,99.99
2018-08-22T04:03:00.871Z,99.99
2018-08-22T04:04:00.684Z,99.99
2018-08-22T04:05:00.701Z,99.99
2018-08-22T04:06:00.679Z,99.99
2018-08-22T04:07:00.681Z,99.99
2018-08-22T04:08:00.686Z,99.99
2018-08-22T04:09:00.684Z,99.99
2018-08-22T04:10:00.689Z,99.99
2018-08-22T04:11:00.692Z,99.99
2018-08-22T04:12:00.709Z,99.99
2018-08-22T04:13:00.898Z,99.99
2018-08-22T04:14:00.728Z,99.99
2018-08-22T04:15:00.713Z,99.99
2018-08-22T04:16:00.717Z,99.99
2018-08-22T04:17:00.705Z,99.99
2018-08-22T04:18:00.735Z,99.99
2018-08-22T04:19:00.922Z,99.99
2018-08-22T04:20:00.930Z,99.99
2018-08-22T04:21:00.736Z,99.99
2018-08-22T04:22:00.716Z,99.99
2018-08-22T04:23:00.729Z,99.99
2018-08-22T04:24:00.725Z,99.99
2018-08-22T04:25:00.733Z,99.99
2018-08-22T04:26:00.744Z,99.99
2018-08-22T04:27:00.933Z,99.99
2018-08-22T04:28:00.755Z,99.99
2018-08-22T04:29:00.735Z,99.99
2018-08-22T04:30:00.765Z,99.99
2018-08-22T04:31:01.005Z,99.99
2018-08-22T04:32:00.958Z,99.99
2018-08-22T04:33:00.745Z,99.99
2018-08-22T04:34:00.770Z,99.99
2018-08-22T04:35:00.749Z,99.99
2018-08-22T04:36:00.764Z,99.99
2018-08-22T04:37:00.755Z,99.99
2018-08-22T04:38:00.759Z,99.99
2018-08-22T04:39:00.760Z,99.99
2018-08-22T04:40:00.762Z,99.99
2018-08-22T04:41:00.763Z,99.99
2018-08-22T04:42:00.766Z,99.99
2018-08-22T04:43:00.770Z,99.99
2018-08-22T04:44:00.785Z,99.99
2018-08-22T04:45:00.780Z,99.99
2018-08-22T04:46:00.777Z,99.99
2018-08-22T04:47:00.980Z,99.99
2018-08-22T04:48:00.783Z,99.99
2018-08-22T04:49:00.785Z,99.99
2018-08-22T04:50:00.788Z,99.99
2018-08-22T04:51:00.790Z,99.99
2018-08-22T04:52:00.791Z,99.99
2018-08-22T04:53:00.805Z,99.99
2018-08-22T04:54:01.000Z,99.99
2018-08-22T04:55:00.796Z,99.99
2018-08-22T04:56:00.813Z,99.99
2018-08-22T04:57:01.005Z,99.99
2018-08-22T04:58:00.809Z,99.99
2018-08-22T04:59:00.816Z,99.99
2018-08-22T05:00:00.810Z,99.99
2018-08-22T05:01:00.813Z,99.99
2018-08-22T05:02:00.824Z,99.99
2018-08-22T05:03:00.817Z,99.99
2018-08-22T05:04:00.829Z,99.99
2018-08-22T05:05:00.822Z,99.99
2018-08-22T05:06:01.046Z,99.99
2018-08-22T05:07:00.823Z,99.99
2018-08-22T05:08:00.829Z,99.99
2018-08-22T05:09:00.842Z,99.99
2018-08-22T05:10:00.833Z,99.99
2018-08-22T05:11:00.833Z,99.99
2018-08-22T05:12:00.845Z,99.99
2018-08-22T05:13:00.838Z,99.99
2018-08-22T05:14:00.840Z,99.99
2018-08-22T05:15:00.847Z,99.99
2018-08-22T05:16:01.052Z,99.99
2018-08-22T05:17:00.857Z,99.99
2018-08-22T05:18:00.848Z,99.99
2018-08-22T05:19:00.863Z,99.99
2018-08-22T05:20:00.855Z,99.99
2018-08-22T05:21:00.857Z,99.99
2018-08-22T05:22:00.858Z,99.99
2018-08-22T05:23:00.875Z,99.99
2018-08-22T05:24:00.865Z,99.99
2018-08-22T05:25:00.881Z,99.99
2018-08-22T05:26:01.091Z,99.99
2018-08-22T05:27:01.089Z,99.99
2018-08-22T05:28:00.878Z,99.99
2018-08-22T05:29:00.901Z,99.99
2018-08-22T05:30:00.925Z,99.99
2018-08-22T05:31:00.878Z,99.99
2018-08-22T05:32:01.088Z,99.99
2018-08-22T05:33:00.883Z,99.99
2018-08-22T05:34:00.885Z,99.99
2018-08-22T05:35:00.909Z,99.99
2018-08-22T05:36:00.891Z,99.99
2018-08-22T05:37:01.127Z,99.99
2018-08-22T05:38:00.922Z,99.99
2018-08-22T05:39:00.899Z,99.99
2018-08-22T05:40:01.120Z,99.99
2018-08-22T05:41:01.108Z,99.99
2018-08-22T05:42:00.927Z,99.99
2018-08-22T05:43:00.920Z,99.99
2018-08-22T05:44:00.913Z,99.99
2018-08-22T05:45:01.115Z,99.99
2018-08-22T05:46:00.913Z,99.99
2018-08-22T05:47:00.931Z,99.99
2018-08-22T05:48:00.933Z,99.99
2018-08-22T05:49:01.175Z,99.99
2018-08-22T05:50:00.925Z,99.99
2018-08-22T05:51:00.938Z,99.99
2018-08-22T05:52:00.941Z,99.99
2018-08-22T05:53:00.931Z,99.99
2018-08-22T05:54:00.945Z,99.99
2018-08-22T05:55:00.938Z,99.99
2018-08-22T05:56:00.938Z,99.99
2018-08-22T05:57:00.944Z,99.99
2018-08-22T05:58:00.958Z,99.99
2018-08-22T05:59:00.948Z,99.99
2018-08-22T06:00:01.152Z,99.99
2018-08-22T06:01:00.950Z,99.99
2018-08-22T06:02:00.956Z,99.99
2018-08-22T06:03:00.966Z,99.99
2018-08-22T06:04:00.963Z,99.99
2018-08-22T06:05:00.965Z,99.99
2018-08-22T06:06:00.965Z,99.99
2018-08-22T06:07:00.984Z,99.99
2018-08-22T06:08:01.176Z,99.99
2018-08-22T06:09:01.017Z,99.99
2018-08-22T06:10:00.979Z,99.99
2018-08-22T06:11:00.993Z,99.99
2018-08-22T06:12:00.991Z,99.99
2018-08-22T06:13:00.984Z,99.99
2018-08-22T06:14:00.986Z,99.99
2018-08-22T06:15:00.992Z,99.99
2018-08-22T06:16:01.004Z,99.99
2018-08-22T06:17:01.213Z,99.99
2018-08-22T06:18:01.012Z,99.99
2018-08-22T06:19:01.014Z,99.99
2018-08-22T06:20:01.031Z,99.99
2018-08-22T06:21:01.210Z,99.99
2018-08-22T06:22:01.251Z,99.99
2018-08-22T06:23:01.017Z,99.99
2018-08-22T06:24:01.029Z,99.99
2018-08-22T06:25:01.029Z,99.99
2018-08-22T06:26:01.022Z,99.99
2018-08-22T06:27:01.059Z,99.99
2018-08-22T06:28:01.037Z,99.99
2018-08-22T06:29:01.032Z,99.99
2018-08-22T06:30:01.036Z,99.99
2018-08-22T06:31:01.255Z,99.99
2018-08-22T06:32:01.054Z,99.99
2018-08-22T06:33:01.052Z,99.99
2018-08-22T06:34:01.046Z,99.99
2018-08-22T06:35:01.049Z,99.99
2018-08-22T06:36:01.068Z,99.99
2018-08-22T06:37:01.066Z,99.99
2018-08-22T06:38:01.059Z,99.99
2018-08-22T06:39:01.061Z,99.99
2018-08-22T06:40:01.074Z,99.99
2018-08-22T06:41:01.081Z,99.99
2018-08-22T06:42:01.286Z,99.99
2018-08-22T06:43:01.089Z,99.99
2018-08-22T06:44:01.090Z,99.99
2018-08-22T06:45:01.284Z,99.99
2018-08-22T06:46:01.087Z,99.99
2018-08-22T06:47:01.092Z,99.99
2018-08-22T06:48:01.099Z,99.99
2018-08-22T06:49:01.096Z,99.99
2018-08-22T06:50:01.097Z,99.99
2018-08-22T06:51:01.101Z,99.99
2018-08-22T06:52:01.102Z,99.99
2018-08-22T06:53:01.106Z,99.99
2018-08-22T06:54:01.108Z,99.99
2018-08-22T06:55:01.315Z,99.99
2018-08-22T06:56:01.118Z,99.99
2018-08-22T06:57:01.142Z,99.99
2018-08-22T06:58:01.124Z,99.99
2018-08-22T06:59:01.128Z,99.99
2018-08-22T07:00:01.336Z,99.99
2018-08-22T07:01:01.136Z,99.99
2018-08-22T07:02:01.143Z,99.99
2018-08-22T07:03:01.348Z,99.99
2018-08-22T07:04:01.349Z,99.99
2018-08-22T07:05:01.358Z,99.99
2018-08-22T07:06:01.154Z,99.99
2018-08-22T07:07:01.360Z,99.99
2018-08-22T07:08:01.211Z,99.99
2018-08-22T07:09:01.163Z,99.99
2018-08-22T07:10:01.374Z,99.99
2018-08-22T07:11:01.172Z,99.99
2018-08-22T07:12:01.378Z,99.99
2018-08-22T07:13:01.180Z,99.99
2018-08-22T07:14:01.255Z,99.99
2018-08-22T07:15:01.188Z,99.99
2018-08-22T07:16:01.195Z,99.99
2018-08-22T07:17:01.194Z,99.99
2018-08-22T07:18:01.222Z,99.99
2018-08-22T07:19:01.205Z,99.99
2018-08-22T07:20:01.206Z,99.99
2018-08-22T07:21:01.275Z,99.99
2018-08-22T07:22:01.418Z,99.99
2018-08-22T07:23:01.222Z,99.99
2018-08-22T07:24:01.222Z,99.99
2018-08-22T07:25:01.231Z,99.99
2018-08-22T07:26:01.435Z,99.99
2018-08-22T07:27:01.438Z,99.99
2018-08-22T07:28:01.452Z,99.99
2018-08-22T07:29:01.259Z,99.99
2018-08-22T07:30:01.586Z,99.99
2018-08-22T07:31:01.266Z,99.99
2018-08-22T07:32:01.458Z,97.96
2018-08-22T07:33:01.462Z,97.77
2018-08-22T07:34:01.291Z,96.22
2018-08-22T07:35:01.272Z,97.09
2018-08-22T07:36:01.289Z,96.08
2018-08-22T07:37:01.291Z,95.64
2018-08-22T07:38:01.498Z,95.16
2018-08-22T07:39:01.287Z,97.19
2018-08-22T07:40:01.293Z,99.02
2018-08-22T07:41:01.309Z,99.99
2018-08-22T07:42:01.511Z,98.92
2018-08-22T07:43:01.316Z,97.96
2018-08-22T07:44:01.318Z,95.78
2018-08-22T07:45:01.525Z,96.08
2018-08-22T07:46:01.331Z,93.66
2018-08-22T07:47:01.585Z,92.98
2018-08-22T07:48:01.530Z,93.66
2018-08-22T07:49:01.545Z,93.47
2018-08-22T07:50:01.334Z,93.71
2018-08-22T07:51:01.343Z,93.61
2018-08-22T07:52:01.558Z,94.77
2018-08-22T07:53:01.360Z,92.65
2018-08-22T07:54:01.351Z,94.24
2018-08-22T07:55:01.371Z,93.23
2018-08-22T07:56:01.376Z,91.29
2018-08-22T07:57:01.391Z,93.90
2018-08-22T07:58:01.386Z,92.55
2018-08-22T07:59:01.376Z,93.41
2018-08-22T08:00:01.411Z,91.09
2018-08-22T08:01:01.394Z,91.97
2018-08-22T08:02:01.687Z,90.03
2018-08-22T08:03:01.412Z,89.94
2018-08-22T08:04:01.425Z,88.63
2018-08-22T08:05:01.402Z,88.34
2018-08-22T08:06:01.409Z,89.11
2018-08-22T08:07:01.665Z,89.69
2018-08-22T08:08:01.430Z,89.25
2018-08-22T08:09:01.434Z,86.93
2018-08-22T08:10:01.436Z,88.57
2018-08-22T08:11:01.726Z,87.41
2018-08-22T08:12:01.468Z,85.68
2018-08-22T08:13:01.452Z,85.00
2018-08-22T08:14:01.458Z,84.75
2018-08-22T08:15:01.482Z,84.32
2018-08-22T08:16:01.659Z,84.75
2018-08-22T08:17:01.531Z,84.46
2018-08-22T08:18:01.465Z,85.04
2018-08-22T08:19:01.483Z,82.43
2018-08-22T08:20:01.491Z,82.86
2018-08-22T08:21:01.483Z,81.40
2018-08-22T08:22:01.518Z,82.95
2018-08-22T08:23:01.499Z,80.82
2018-08-22T08:24:01.702Z,81.60
2018-08-22T08:25:01.711Z,81.30
2018-08-22T08:26:01.736Z,81.98
2018-08-22T08:27:01.530Z,81.70
2018-08-22T08:28:01.724Z,81.83
2018-08-22T08:29:01.540Z,82.03
2018-08-22T08:30:01.750Z,82.03
2018-08-22T08:31:01.564Z,82.03
2018-08-22T08:32:01.548Z,81.73
2018-08-22T08:33:01.572Z,80.80
2018-08-22T08:34:01.559Z,80.90
2018-08-22T08:35:01.562Z,79.25
2018-08-22T08:36:01.579Z,78.71
2018-08-22T08:37:01.575Z,79.49
2018-08-22T08:38:01.665Z,80.07
2018-08-22T08:39:01.609Z,79.78
2018-08-22T08:40:01.811Z,80.11
2018-08-22T08:41:01.611Z,77.59
2018-08-22T08:42:01.611Z,77.04
2018-08-22T08:43:01.824Z,77.92
2018-08-22T08:44:01.628Z,77.39
2018-08-22T08:45:01.839Z,76.42
2018-08-22T08:46:01.632Z,76.78
2018-08-22T08:47:01.648Z,78.09
2018-08-22T08:48:01.844Z,79.25
2018-08-22T08:49:01.674Z,79.45
2018-08-22T08:50:01.656Z,79.84
2018-08-22T08:51:01.673Z,79.74
2018-08-22T08:52:01.679Z,79.35
2018-08-22T08:53:01.875Z,80.13
2018-08-22T08:54:01.676Z,78.67
2018-08-22T08:55:01.683Z,76.93
2018-08-22T08:56:01.694Z,78.77
2018-08-22T08:57:01.708Z,80.22
2018-08-22T08:58:01.707Z,80.52
2018-08-22T08:59:01.722Z,78.92
2018-08-22T09:00:01.719Z,80.67
2018-08-22T09:01:01.943Z,81.15
2018-08-22T09:02:01.787Z,80.77
2018-08-22T09:03:01.738Z,80.77
2018-08-22T09:04:01.802Z,81.50
2018-08-22T09:05:01.757Z,81.79
2018-08-22T09:06:01.756Z,82.33
2018-08-22T09:07:01.985Z,82.81
2018-08-22T09:08:01.966Z,83.69
2018-08-22T09:09:01.781Z,82.81
2018-08-22T09:10:01.793Z,83.69
2018-08-22T09:11:01.993Z,83.88
2018-08-22T09:12:01.790Z,84.75
2018-08-22T09:13:01.805Z,83.15
2018-08-22T09:14:01.828Z,82.47
2018-08-22T09:15:02.025Z,81.79
2018-08-22T09:16:01.828Z,83.83
2018-08-22T09:17:01.815Z,84.01
2018-08-22T09:18:01.833Z,83.53
2018-08-22T09:19:01.862Z,83.67
2018-08-22T09:20:02.069Z,82.66
2018-08-22T09:21:01.872Z,83.40
2018-08-22T09:22:01.849Z,83.01
2018-08-22T09:23:01.852Z,83.59
2018-08-22T09:24:01.923Z,84.46
2018-08-22T09:25:01.866Z,84.71
2018-08-22T09:26:01.868Z,85.19
2018-08-22T09:27:02.078Z,85.83
2018-08-22T09:28:02.111Z,86.45
2018-08-22T09:29:02.087Z,84.42
2018-08-22T09:30:01.934Z,87.03
2018-08-22T09:31:02.099Z,86.74
2018-08-22T09:32:01.903Z,86.83
2018-08-22T09:33:01.918Z,87.81
2018-08-22T09:34:01.911Z,87.51
2018-08-22T09:35:02.119Z,89.15
2018-08-22T09:36:01.922Z,87.13
2018-08-22T09:37:02.153Z,88.19
2018-08-22T09:38:01.946Z,87.61
2018-08-22T09:39:01.941Z,86.74
2018-08-22T09:40:02.033Z,87.51
2018-08-22T09:41:01.959Z,88.24
2018-08-22T09:42:01.964Z,88.19
2018-08-22T09:43:01.961Z,88.19
2018-08-22T09:44:01.964Z,86.41
2018-08-22T09:45:01.971Z,87.18
2018-08-22T09:46:01.975Z,86.06
2018-08-22T09:47:01.982Z,88.77
2018-08-22T09:48:01.997Z,89.45
2018-08-22T09:49:02.209Z,88.09
2018-08-22T09:50:02.000Z,87.41
2018-08-22T09:51:02.005Z,89.74
2018-08-22T09:52:02.009Z,87.51
2018-08-22T09:53:02.012Z,87.55
2018-08-22T09:54:02.032Z,86.40
2018-08-22T09:55:02.035Z,88.91
2018-08-22T09:56:02.041Z,87.36
2018-08-22T09:57:02.051Z,86.20
2018-08-22T09:58:02.090Z,83.30
2018-08-22T09:59:02.057Z,84.66
2018-08-22T10:00:02.116Z,86.40
2018-08-22T10:01:02.057Z,90.07
2018-08-22T10:02:02.064Z,88.13
2018-08-22T10:03:02.071Z,87.07
2018-08-22T10:04:02.075Z,87.07
2018-08-22T10:05:02.079Z,86.69
2018-08-22T10:06:02.088Z,83.34
2018-08-22T10:07:02.351Z,86.54
2018-08-22T10:08:02.105Z,83.92
2018-08-22T10:09:02.097Z,85.04
2018-08-22T10:10:02.222Z,85.72
2018-08-22T10:11:02.123Z,85.24
2018-08-22T10:12:02.130Z,84.84
2018-08-22T10:13:02.134Z,86.30
2018-08-22T10:14:02.129Z,85.62
2018-08-22T10:15:02.133Z,84.56
2018-08-22T10:16:02.159Z,84.36
2018-08-22T10:17:02.145Z,85.04
2018-08-22T10:18:02.151Z,87.07
2018-08-22T10:19:02.425Z,88.43
2018-08-22T10:20:02.160Z,86.78
2018-08-22T10:21:02.167Z,87.46
2018-08-22T10:22:02.193Z,86.10
2018-08-22T10:23:02.188Z,86.98
2018-08-22T10:24:02.203Z,85.72
2018-08-22T10:25:02.201Z,86.78
2018-08-22T10:26:02.207Z,86.59
2018-08-22T10:27:02.468Z,85.96
2018-08-22T10:28:02.204Z,85.76
2018-08-22T10:29:02.243Z,86.82
2018-08-22T10:30:02.243Z,86.98
2018-08-22T10:31:02.231Z,87.17
2018-08-22T10:32:02.231Z,85.76
2018-08-22T10:33:02.470Z,86.30
2018-08-22T10:34:02.250Z,86.01
2018-08-22T10:35:02.273Z,86.59
2018-08-22T10:36:02.261Z,86.10
2018-08-22T10:37:02.473Z,87.46
2018-08-22T10:38:02.262Z,86.92
2018-08-22T10:39:02.295Z,85.66
2018-08-22T10:40:02.277Z,83.86
2018-08-22T10:41:02.290Z,84.30
2018-08-22T10:42:02.283Z,83.13
2018-08-22T10:43:02.315Z,81.13
2018-08-22T10:44:02.297Z,79.78
2018-08-22T10:45:02.330Z,79.78
2018-08-22T10:46:02.321Z,81.72
2018-08-22T10:47:02.525Z,85.11
2018-08-22T10:48:02.371Z,81.87
2018-08-22T10:49:02.327Z,81.97
2018-08-22T10:50:02.341Z,79.60
2018-08-22T10:51:02.539Z,80.67
2018-08-22T10:52:02.352Z,82.70
2018-08-22T10:53:02.347Z,83.23
2018-08-22T10:54:02.418Z,83.81
2018-08-22T10:55:02.572Z,82.07
2018-08-22T10:56:02.377Z,82.65
2018-08-22T10:57:02.382Z,82.03
2018-08-22T10:58:02.386Z,82.03
2018-08-22T10:59:02.382Z,82.32
2018-08-22T11:00:02.389Z,80.28
2018-08-22T11:01:02.399Z,81.64
2018-08-22T11:02:02.487Z,82.32
2018-08-22T11:03:02.618Z,82.80
2018-08-22T11:04:02.428Z,82.80
2018-08-22T11:05:02.619Z,83.38
2018-08-22T11:06:02.432Z,82.22
2018-08-22T11:07:02.442Z,82.80
2018-08-22T11:08:02.435Z,82.90
2018-08-22T11:09:02.643Z,82.12
2018-08-22T11:10:02.540Z,83.73
2018-08-22T11:11:02.654Z,86.82
2018-08-22T11:12:02.467Z,86.34
2018-08-22T11:13:02.490Z,86.77
2018-08-22T11:14:02.489Z,85.18
2018-08-22T11:15:02.484Z,81.98
2018-08-22T11:16:02.532Z,82.47
2018-08-22T11:17:02.485Z,83.44
2018-08-22T11:18:02.492Z,82.76
2018-08-22T11:19:02.498Z,82.18
2018-08-22T11:20:02.501Z,82.66
2018-08-22T11:21:02.521Z,81.30
2018-08-22T11:22:02.523Z,80.96
2018-08-22T11:23:02.542Z,80.87
2018-08-22T11:24:02.548Z,82.03
2018-08-22T11:25:02.543Z,81.35
2018-08-22T11:26:02.537Z,81.64
2018-08-22T11:27:02.545Z,82.07
2018-08-22T11:28:02.762Z,80.90
2018-08-22T11:29:02.553Z,81.58
2018-08-22T11:30:02.573Z,79.55
2018-08-22T11:31:02.568Z,78.81
2018-08-22T11:32:02.581Z,81.13
2018-08-22T11:33:02.602Z,81.68
2018-08-22T11:34:02.614Z,79.16
2018-08-22T11:35:02.600Z,79.16
2018-08-22T11:36:02.797Z,80.52
2018-08-22T11:37:02.600Z,80.13
2018-08-22T11:38:02.617Z,79.93
2018-08-22T11:39:02.814Z,80.52
2018-08-22T11:40:02.821Z,80.13
2018-08-22T11:41:02.851Z,80.71
2018-08-22T11:42:02.629Z,81.77
2018-08-22T11:43:02.635Z,81.58
2018-08-22T11:44:02.846Z,80.96
2018-08-22T11:45:02.661Z,80.57
2018-08-22T11:46:02.663Z,79.41
2018-08-22T11:47:02.663Z,81.54
2018-08-22T11:48:02.663Z,82.51
2018-08-22T11:49:02.874Z,83.09
2018-08-22T11:50:02.677Z,82.07
2018-08-22T11:51:02.695Z,81.83
2018-08-22T11:52:02.690Z,83.77
2018-08-22T11:53:02.700Z,83.67
2018-08-22T11:54:02.699Z,83.77
2018-08-22T11:55:02.707Z,83.58
2018-08-22T11:56:02.921Z,82.70
2018-08-22T11:57:02.718Z,81.83
2018-08-22T11:58:02.723Z,81.93
2018-08-22T11:59:02.731Z,82.22
2018-08-22T12:00:02.940Z,82.41
2018-08-22T12:01:02.741Z,83.77
2018-08-22T12:02:02.989Z,83.00
2018-08-22T12:03:02.752Z,83.58
2018-08-22T12:04:02.759Z,83.67
2018-08-22T12:05:02.776Z,86.00
2018-08-22T12:06:02.972Z,83.48
2018-08-22T12:07:02.785Z,81.64
2018-08-22T12:08:02.794Z,83.28
2018-08-22T12:09:02.791Z,81.45
2018-08-22T12:10:02.795Z,83.38
2018-08-22T12:11:02.801Z,80.77
2018-08-22T12:12:02.810Z,79.99
2018-08-22T12:13:02.815Z,78.48
2018-08-22T12:14:02.831Z,79.55
2018-08-22T12:15:02.842Z,80.71
2018-08-22T12:16:02.850Z,79.25
2018-08-22T12:17:02.839Z,78.00
2018-08-22T12:18:02.854Z,78.33
2018-08-22T12:19:02.862Z,79.78
2018-08-22T12:20:02.869Z,79.49
2018-08-22T12:21:02.860Z,79.00
2018-08-22T12:22:02.871Z,77.84
2018-08-22T12:23:02.922Z,78.29
2018-08-22T12:24:02.882Z,78.38
2018-08-22T12:25:02.886Z,79.35
2018-08-22T12:26:03.093Z,78.77
2018-08-22T12:27:02.921Z,77.65
2018-08-22T12:28:02.901Z,78.61
2018-08-22T12:29:02.913Z,78.23
2018-08-22T12:30:02.917Z,80.07
2018-08-22T12:31:03.176Z,81.04
2018-08-22T12:32:02.950Z,80.32
2018-08-22T12:33:02.957Z,80.42
2018-08-22T12:34:03.161Z,80.32
2018-08-22T12:35:02.957Z,80.90
2018-08-22T12:36:02.967Z,79.16
2018-08-22T12:37:02.954Z,79.84
2018-08-22T12:38:02.980Z,82.55
2018-08-22T12:39:02.969Z,80.62
2018-08-22T12:40:03.181Z,81.10
2018-08-22T12:41:02.980Z,80.13
2018-08-22T12:42:03.009Z,79.74
2018-08-22T12:43:02.992Z,79.45
2018-08-22T12:44:03.002Z,79.74
2018-08-22T12:45:03.001Z,80.52
2018-08-22T12:46:03.021Z,79.84
2018-08-22T12:47:03.220Z,78.23
2018-08-22T12:48:03.032Z,77.94
2018-08-22T12:49:03.041Z,76.62
2018-08-22T12:50:03.045Z,76.04
2018-08-22T12:51:03.040Z,77.98
2018-08-22T12:52:03.057Z,77.29
2018-08-22T12:53:03.048Z,75.74